Airfield :
LOGIN :

Register | Disclaimer

   EN    FR    IT 

 










Legend :    VFR   Marginal VFR   IFR   Intensive IFR   Very Intensive IFR
Visi :
Ceiling :
>= 8 km
>= 3000ft
5 to 8 km
1000 to 3000 ft
1500m to 5 km
500 to 1000 ft
800 to 1500m
200 to 500 ft
< 800m
< 200 ft
Symbols :   Thunderstorms  Fog  Heavy snow  Heavy precipitations  Wind > 20 kt
SIGMETs :     Misc.  Thunderstorms  Icing  Turbulence  Mountain Waves  Volcanic Ashes







- Airport Elevation : 1060 ft
- IATA code : GAF


DTTF - Gafsa

CURRENT METAR :
  • 180600Z 08005KT 9999 FEW033 12/11 Q1005 NOSIG

EXPIRED METARs :
  • 180500Z 02003KT 8000 FEW033 13/11 Q1004 NOSIG

TAF TAF DTTF
Valid from the 18 at 07:00 until the 18 at 16:00 UTC


180600Z 1807/1816 04005KT 8000 SCT026 SCT033
BECMG 1807/1809 20010KT
PROB30
TEMPO 1810/1815 FEW030CB
No reported NOTAMs for that airfield.
5 SIGMETs reported for the Tunis FIR (DTTC) :
 
Embedded thunderstorms
DTTC SIGMET 99 VALID 180400/180800 DTTA
DTTC TUNIS FIR EMBD TS OBS N OF LINE N3600.TOP BLW FL390 MOV N/NE 20KT NC.=
Embedded thunderstorms
DTTC SIGMET 05 VALID 180500/180800 DTTA
DTTC TUNIS FIR EMBD TS OBS N OF LINE N3600.TOP BLW FL390 MOV N/NE 20KT NC.=
SIGMET 99 cancelation
DTTC SIGMET 04 VALID 180500/180800 DTTA
DTTC TUNIS FIR CNL SIGMET 99 180400/180800.=
Embedded thunderstorms
DTTC SIGMET 03 VALID 180400/180800 DTTA
DTTC TUNIS FIR EMBD TS OBS N OF LINE N3600.TOP BLW FL390 MOV N/NE 20KT NC.=
Embedded thunderstorms
DTTA VALID 180400/180800 DTTA
DTTC TUNIS FIR EMBD TS OBS N OF LINE N3600.TOP BLW FL390 MOV N/NE 20KT NC.=



MET'MAP, your aeronautical weather chart ! - Copyright ORBIFLY December 2007 - Disclaimer

ORBIFLY MET'MAP TEAM :

Programming & Development : Alexandra Zaïnal
Concept & Development : Baudouin d'Aumeries
Co-Development & Prog : Marc-Olivier Méhu
Technical & hardware support : Manuel Goepfert

Contact : metmap@orbifly.com




SOURCES & CREDITS :

   NOAA